createdAt,value
2022-12-03T00:00:57.720Z,957
2022-12-03T00:01:59.439Z,957
2022-12-03T00:03:01.747Z,957
2022-12-03T00:04:04.314Z,957
2022-12-03T00:05:06.430Z,957.1
2022-12-03T00:06:08.167Z,957.1
2022-12-03T00:07:09.917Z,957
2022-12-03T00:08:11.894Z,957.1
2022-12-03T00:09:14.034Z,957.1
2022-12-03T00:10:15.775Z,957.1
2022-12-03T00:11:17.504Z,957.1
2022-12-03T00:12:19.374Z,957.1
2022-12-03T00:13:21.253Z,957.1
2022-12-03T00:14:23.276Z,957.2
2022-12-03T00:15:25.049Z,957.2
2022-12-03T00:16:27.082Z,957.2
2022-12-03T00:17:29.145Z,957.2
2022-12-03T00:18:30.984Z,957.2
2022-12-03T00:19:32.721Z,957.2
2022-12-03T00:20:34.458Z,957.2
2022-12-03T00:21:36.432Z,957.2
2022-12-03T00:22:38.179Z,957.3
2022-12-03T00:23:42.906Z,957.2
2022-12-03T00:24:44.644Z,957.3
2022-12-03T00:25:46.492Z,957.3
2022-12-03T00:26:48.138Z,957.3
2022-12-03T00:27:49.894Z,957.2
2022-12-03T00:28:51.787Z,957.3
2022-12-03T00:29:53.700Z,957.3
2022-12-03T00:30:55.688Z,957.3
2022-12-03T00:31:57.413Z,957.3
2022-12-03T00:32:59.246Z,957.3
2022-12-03T00:34:00.987Z,957.3
2022-12-03T00:35:02.950Z,957.3
2022-12-03T00:36:04.895Z,957.3
2022-12-03T00:37:06.566Z,957.3
2022-12-03T00:38:08.283Z,957.3
2022-12-03T00:39:10.055Z,957.3
2022-12-03T00:40:11.880Z,957.3
2022-12-03T00:41:13.660Z,957.3
2022-12-03T00:42:15.409Z,957.3
2022-12-03T00:43:17.236Z,957.3
2022-12-03T00:44:19.012Z,957.3
2022-12-03T00:45:20.803Z,957.3
2022-12-03T00:46:22.689Z,957.4
2022-12-03T00:47:24.641Z,957.4
2022-12-03T00:48:26.890Z,957.4
2022-12-03T00:49:28.634Z,957.4
2022-12-03T00:50:30.314Z,957.4
2022-12-03T00:51:32.138Z,957.4
2022-12-03T00:52:33.912Z,957.4
2022-12-03T00:53:35.625Z,957.5
2022-12-03T00:54:37.386Z,957.5
2022-12-03T00:55:39.013Z,957.5
2022-12-03T00:56:40.867Z,957.5
2022-12-03T00:57:42.539Z,957.5
2022-12-03T00:58:44.284Z,957.6
2022-12-03T00:59:46.037Z,957.6
2022-12-03T01:00:47.959Z,957.6
2022-12-03T01:01:52.936Z,957.6
2022-12-03T01:02:54.858Z,957.6
2022-12-03T01:03:56.609Z,957.6
2022-12-03T01:04:58.490Z,957.6
2022-12-03T01:06:00.485Z,957.6
2022-12-03T01:07:02.236Z,957.6
2022-12-03T01:08:04.345Z,957.6
2022-12-03T01:09:06.352Z,957.6
2022-12-03T01:10:08.129Z,957.6
2022-12-03T01:11:09.952Z,957.7
2022-12-03T01:12:14.375Z,957.6
2022-12-03T01:13:16.200Z,957.6
2022-12-03T01:14:17.959Z,957.7
2022-12-03T01:15:19.831Z,957.7
2022-12-03T01:16:21.966Z,957.6
2022-12-03T01:17:23.835Z,957.7
2022-12-03T01:18:25.585Z,957.7
2022-12-03T01:19:27.303Z,957.7
2022-12-03T01:20:29.081Z,957.7
2022-12-03T01:21:30.693Z,957.7
2022-12-03T01:22:32.448Z,957.8
2022-12-03T01:23:34.392Z,957.7
2022-12-03T01:24:36.041Z,957.8
2022-12-03T01:25:37.903Z,957.7
2022-12-03T01:26:39.643Z,957.8
2022-12-03T01:27:41.356Z,957.8
2022-12-03T01:28:43.059Z,957.8
2022-12-03T01:29:44.881Z,957.8
2022-12-03T01:30:46.889Z,957.8
2022-12-03T01:31:49.167Z,957.8
2022-12-03T01:32:51.181Z,957.8
2022-12-03T01:33:52.887Z,957.8
2022-12-03T01:34:56.304Z,957.8
2022-12-03T01:35:58.756Z,957.8
2022-12-03T01:37:00.594Z,957.8
2022-12-03T01:38:02.242Z,957.8
2022-12-03T01:39:04.091Z,957.8
2022-12-03T01:40:05.751Z,957.8
2022-12-03T01:41:12.408Z,957.8
2022-12-03T01:42:14.130Z,957.8
2022-12-03T01:43:16.099Z,957.8
2022-12-03T01:44:17.727Z,957.8
2022-12-03T01:45:19.592Z,957.7
2022-12-03T01:46:21.624Z,957.8
2022-12-03T01:47:23.501Z,957.8
2022-12-03T01:48:25.172Z,957.8
2022-12-03T01:49:26.926Z,957.8
2022-12-03T01:50:28.769Z,957.8
2022-12-03T01:51:30.492Z,957.7
2022-12-03T01:52:32.265Z,957.8
2022-12-03T01:53:33.849Z,957.8
2022-12-03T01:54:35.600Z,957.8
2022-12-03T01:55:37.583Z,957.8
2022-12-03T01:56:39.228Z,957.8
2022-12-03T01:57:40.976Z,957.8
2022-12-03T01:58:42.655Z,957.8
2022-12-03T01:59:44.402Z,957.8
2022-12-03T02:00:49.091Z,957.8
2022-12-03T02:01:51.108Z,957.8
2022-12-03T02:02:53.197Z,957.8
2022-12-03T02:03:55.106Z,957.7
2022-12-03T02:04:57.203Z,957.7
2022-12-03T02:05:59.057Z,957.7
2022-12-03T02:07:00.799Z,957.7
2022-12-03T02:08:02.917Z,957.7
2022-12-03T02:09:04.909Z,957.7
2022-12-03T02:10:06.678Z,957.7
2022-12-03T02:11:08.411Z,957.7
2022-12-03T02:12:10.080Z,957.7
2022-12-03T02:13:11.900Z,957.7
2022-12-03T02:14:13.580Z,957.7
2022-12-03T02:15:15.303Z,957.7
2022-12-03T02:16:17.303Z,957.7
2022-12-03T02:17:19.299Z,957.7
2022-12-03T02:18:21.165Z,957.7
2022-12-03T02:19:22.899Z,957.7
2022-12-03T02:20:24.648Z,957.7
2022-12-03T02:21:26.434Z,957.7
2022-12-03T02:22:28.155Z,957.7
2022-12-03T02:23:29.923Z,957.7
2022-12-03T02:24:31.535Z,957.7
2022-12-03T02:25:33.285Z,957.7
2022-12-03T02:26:34.953Z,957.7
2022-12-03T02:27:36.665Z,957.7
2022-12-03T02:28:38.459Z,957.8
2022-12-03T02:29:40.096Z,957.8
2022-12-03T02:30:41.826Z,957.7
2022-12-03T02:31:44.076Z,957.7
2022-12-03T02:32:46.154Z,957.7
2022-12-03T02:33:48.088Z,957.6
2022-12-03T02:34:49.836Z,957.6
2022-12-03T02:35:51.683Z,957.7
2022-12-03T02:36:53.440Z,957.6
2022-12-03T02:37:55.098Z,957.6
2022-12-03T02:38:56.966Z,957.6
2022-12-03T02:39:58.674Z,957.7
2022-12-03T02:41:00.423Z,957.7
2022-12-03T02:42:02.171Z,957.7
2022-12-03T02:43:03.983Z,957.7
2022-12-03T02:44:05.867Z,957.6
2022-12-03T02:45:07.542Z,957.6
2022-12-03T02:46:09.361Z,957.6
2022-12-03T02:47:11.360Z,957.6
2022-12-03T02:48:13.403Z,957.7
2022-12-03T02:49:15.426Z,957.6
2022-12-03T02:50:17.174Z,957.6
2022-12-03T02:51:18.816Z,957.7
2022-12-03T02:52:20.667Z,957.6
2022-12-03T02:53:22.727Z,957.7
2022-12-03T02:54:24.473Z,957.7
2022-12-03T02:55:37.259Z,957.7
2022-12-03T02:56:39.257Z,957.7
2022-12-03T02:57:40.981Z,957.7
2022-12-03T02:58:42.733Z,957.6
2022-12-03T02:59:44.574Z,957.6
2022-12-03T03:00:46.799Z,957.6
2022-12-03T03:01:48.922Z,957.6
2022-12-03T03:02:50.768Z,957.5
2022-12-03T03:03:52.505Z,957.6
2022-12-03T03:04:55.089Z,957.6
2022-12-03T03:05:57.231Z,957.7
2022-12-03T03:06:58.822Z,957.7
2022-12-03T03:08:01.000Z,957.7
2022-12-03T03:09:02.983Z,957.7
2022-12-03T03:10:04.643Z,957.7
2022-12-03T03:11:06.494Z,957.7
2022-12-03T03:12:08.106Z,957.7
2022-12-03T03:13:09.865Z,957.7
2022-12-03T03:14:11.601Z,957.7
2022-12-03T03:15:13.243Z,957.6
2022-12-03T03:16:15.249Z,957.6
2022-12-03T03:17:17.158Z,957.6
2022-12-03T03:18:18.833Z,957.6
2022-12-03T03:19:20.567Z,957.6
2022-12-03T03:20:22.398Z,957.6
2022-12-03T03:21:24.273Z,957.6
2022-12-03T03:22:25.993Z,957.6
2022-12-03T03:23:27.667Z,957.6
2022-12-03T03:24:29.308Z,957.6
2022-12-03T03:25:31.166Z,957.6
2022-12-03T03:26:32.885Z,957.6
2022-12-03T03:27:34.528Z,957.6
2022-12-03T03:28:36.400Z,957.6
2022-12-03T03:29:38.146Z,957.6
2022-12-03T03:30:39.876Z,957.6
2022-12-03T03:31:42.050Z,957.6
2022-12-03T03:32:43.912Z,957.6
2022-12-03T03:33:45.656Z,957.6
2022-12-03T03:34:47.290Z,957.6
2022-12-03T03:35:49.019Z,957.6
2022-12-03T03:36:50.973Z,957.5
2022-12-03T03:37:52.716Z,957.6
2022-12-03T03:38:54.686Z,957.5
2022-12-03T03:39:56.429Z,957.6
2022-12-03T03:40:58.175Z,957.5
2022-12-03T03:42:00.120Z,957.5
2022-12-03T03:43:01.874Z,957.6
2022-12-03T03:44:03.750Z,957.6
2022-12-03T03:45:05.554Z,957.6
2022-12-03T03:46:07.708Z,957.6
2022-12-03T03:47:09.692Z,957.7
2022-12-03T03:48:12.529Z,957.7
2022-12-03T03:49:14.381Z,957.7
2022-12-03T03:50:16.182Z,957.7
2022-12-03T03:51:17.925Z,957.7
2022-12-03T03:52:19.647Z,957.7
2022-12-03T03:53:21.594Z,957.7
2022-12-03T03:54:23.238Z,957.7
2022-12-03T03:55:24.995Z,957.8
2022-12-03T03:56:26.849Z,957.8
2022-12-03T03:57:28.787Z,957.8
2022-12-03T03:58:30.535Z,957.7
2022-12-03T03:59:32.284Z,957.8
2022-12-03T04:00:34.135Z,957.8
2022-12-03T04:01:36.148Z,957.8
2022-12-03T04:02:38.038Z,957.8
2022-12-03T04:03:40.157Z,957.7
2022-12-03T04:04:42.057Z,957.7
2022-12-03T04:05:43.923Z,957.7
2022-12-03T04:06:45.828Z,957.7
2022-12-03T04:07:47.735Z,957.7
2022-12-03T04:08:49.648Z,957.7
2022-12-03T04:09:51.322Z,957.7
2022-12-03T04:10:53.016Z,957.7
2022-12-03T04:11:54.659Z,957.8
2022-12-03T04:12:56.535Z,957.8
2022-12-03T04:13:58.256Z,957.9
2022-12-03T04:15:00.034Z,957.9
2022-12-03T04:16:01.786Z,957.9
2022-12-03T04:17:03.890Z,957.9
2022-12-03T04:18:05.962Z,957.9
2022-12-03T04:19:07.741Z,957.9
2022-12-03T04:20:09.485Z,957.9
2022-12-03T04:21:11.362Z,957.9
2022-12-03T04:22:13.157Z,957.9
2022-12-03T04:23:15.039Z,957.9
2022-12-03T04:24:16.800Z,957.9
2022-12-03T04:25:18.575Z,958
2022-12-03T04:26:20.285Z,958
2022-12-03T04:27:22.035Z,958
2022-12-03T04:28:23.703Z,958
2022-12-03T04:29:25.599Z,958
2022-12-03T04:30:27.607Z,957.9
2022-12-03T04:31:29.443Z,957.9
2022-12-03T04:32:31.179Z,957.9
2022-12-03T04:33:32.832Z,957.9
2022-12-03T04:34:34.819Z,957.9
2022-12-03T04:35:36.859Z,957.9
2022-12-03T04:36:38.803Z,958
2022-12-03T04:37:40.642Z,958
2022-12-03T04:38:42.367Z,958
2022-12-03T04:39:44.158Z,958
2022-12-03T04:40:45.974Z,958
2022-12-03T04:41:47.720Z,958
2022-12-03T04:42:49.488Z,958.1
2022-12-03T04:43:51.064Z,958.1
2022-12-03T04:44:53.852Z,958.1
2022-12-03T04:45:56.696Z,958.1
2022-12-03T04:46:58.823Z,958.1
2022-12-03T04:48:00.565Z,958.1
2022-12-03T04:49:02.214Z,958.1
2022-12-03T04:50:04.160Z,958.1
2022-12-03T04:51:05.811Z,958.2
2022-12-03T04:52:07.636Z,958.1
2022-12-03T04:53:09.510Z,958.1
2022-12-03T04:54:11.267Z,958.1
2022-12-03T04:55:13.112Z,958.1
2022-12-03T04:56:14.870Z,958.1
2022-12-03T04:57:16.574Z,958.1
2022-12-03T04:58:18.332Z,958
2022-12-03T04:59:20.212Z,958.1
2022-12-03T05:00:21.829Z,958.1
2022-12-03T05:01:23.944Z,958.1
2022-12-03T05:02:26.193Z,958.1
2022-12-03T05:03:28.319Z,958.1
2022-12-03T05:04:30.063Z,958.1
2022-12-03T05:05:31.893Z,958
2022-12-03T05:06:36.424Z,958.1
2022-12-03T05:07:38.444Z,958
2022-12-03T05:08:40.533Z,958
2022-12-03T05:09:42.280Z,958
2022-12-03T05:10:44.023Z,958
2022-12-03T05:11:45.761Z,958
2022-12-03T05:12:47.448Z,958
2022-12-03T05:13:49.265Z,958
2022-12-03T05:14:51.798Z,958.1
2022-12-03T05:15:54.408Z,958.1
2022-12-03T05:16:56.713Z,958.1
2022-12-03T05:17:58.691Z,958
2022-12-03T05:19:00.670Z,958.1
2022-12-03T05:20:02.416Z,958.1
2022-12-03T05:21:04.095Z,958.1
2022-12-03T05:22:05.929Z,958.2
2022-12-03T05:23:07.690Z,958.2
2022-12-03T05:24:09.515Z,958.2
2022-12-03T05:25:11.282Z,958.2
2022-12-03T05:26:13.012Z,958.2
2022-12-03T05:27:24.437Z,958.2
2022-12-03T05:28:26.234Z,958.2
2022-12-03T05:29:27.900Z,958.2
2022-12-03T05:30:29.949Z,958.2
2022-12-03T05:31:32.193Z,958.2
2022-12-03T05:32:33.965Z,958.1
2022-12-03T05:33:44.726Z,958.2
2022-12-03T05:34:46.647Z,958.1
2022-12-03T05:35:48.361Z,958.1
2022-12-03T05:36:50.069Z,958.1
2022-12-03T05:37:51.792Z,958
2022-12-03T05:38:53.570Z,958.1
2022-12-03T05:39:55.459Z,958.1
2022-12-03T05:40:57.311Z,958.2
2022-12-03T05:41:59.085Z,958.2
2022-12-03T05:43:00.909Z,958.3
2022-12-03T05:44:02.692Z,958.3
2022-12-03T05:45:04.636Z,958.3
2022-12-03T05:46:06.996Z,958.3
2022-12-03T05:47:08.814Z,958.3
2022-12-03T05:48:10.581Z,958.4
2022-12-03T05:49:12.267Z,958.4
2022-12-03T05:50:13.992Z,958.4
2022-12-03T05:51:15.848Z,958.3
2022-12-03T05:52:17.588Z,958.4
2022-12-03T05:53:22.215Z,958.3
2022-12-03T05:54:23.983Z,958.3
2022-12-03T05:55:25.873Z,958.4
2022-12-03T05:56:27.646Z,958.4
2022-12-03T05:57:29.277Z,958.4
2022-12-03T05:58:30.939Z,958.4
2022-12-03T05:59:32.678Z,958.4
2022-12-03T06:00:43.248Z,958.4
2022-12-03T06:01:45.195Z,958.4
2022-12-03T06:02:47.320Z,958.3
2022-12-03T06:03:50.026Z,958.3
2022-12-03T06:04:53.281Z,958.4
2022-12-03T06:05:55.902Z,958.4
2022-12-03T06:06:57.722Z,958.4
2022-12-03T06:07:59.741Z,958.4
2022-12-03T06:09:01.636Z,958.4
2022-12-03T06:10:03.517Z,958.5
2022-12-03T06:11:08.067Z,958.5
2022-12-03T06:12:09.850Z,958.5
2022-12-03T06:13:11.588Z,958.6
2022-12-03T06:14:13.231Z,958.6
2022-12-03T06:15:15.024Z,958.6
2022-12-03T06:16:17.187Z,958.6
2022-12-03T06:17:18.959Z,958.5
2022-12-03T06:18:20.833Z,958.6
2022-12-03T06:19:22.590Z,958.6
2022-12-03T06:20:24.429Z,958.5
2022-12-03T06:21:26.178Z,958.6
2022-12-03T06:22:27.929Z,958.6
2022-12-03T06:23:29.674Z,958.5
2022-12-03T06:24:31.315Z,958.5
2022-12-03T06:25:33.087Z,958.6
2022-12-03T06:26:35.017Z,958.6
2022-12-03T06:27:36.768Z,958.6
2022-12-03T06:28:38.592Z,958.6
2022-12-03T06:29:40.363Z,958.6
2022-12-03T06:30:42.086Z,958.6
2022-12-03T06:31:44.088Z,958.7
2022-12-03T06:32:46.120Z,958.7
2022-12-03T06:33:47.969Z,958.7
2022-12-03T06:34:49.816Z,958.6
2022-12-03T06:35:51.577Z,958.6
2022-12-03T06:36:53.423Z,958.7
2022-12-03T06:37:55.097Z,958.7
2022-12-03T06:38:56.918Z,958.7
2022-12-03T06:39:58.569Z,958.7
2022-12-03T06:41:00.517Z,958.7
2022-12-03T06:42:02.190Z,958.7
2022-12-03T06:43:03.827Z,958.7
2022-12-03T06:44:05.584Z,958.7
2022-12-03T06:45:07.222Z,958.7
2022-12-03T06:46:09.171Z,958.6
2022-12-03T06:47:11.100Z,958.6
2022-12-03T06:48:12.974Z,958.6
2022-12-03T06:49:14.703Z,958.6
2022-12-03T06:50:16.444Z,958.6
2022-12-03T06:51:18.222Z,958.7
2022-12-03T06:52:19.938Z,958.6
2022-12-03T06:53:21.684Z,958.6
2022-12-03T06:54:23.536Z,958.6
2022-12-03T06:55:25.194Z,958.6
2022-12-03T06:56:45.054Z,958.6
2022-12-03T06:57:47.344Z,958.6
2022-12-03T06:58:49.172Z,958.6
2022-12-03T06:59:51.739Z,958.6
2022-12-03T07:00:54.425Z,958.6
2022-12-03T07:01:56.409Z,958.6
2022-12-03T07:02:58.704Z,958.6
2022-12-03T07:04:03.156Z,958.6
2022-12-03T07:05:05.075Z,958.7
2022-12-03T07:06:06.821Z,958.6
2022-12-03T07:07:08.578Z,958.6
2022-12-03T07:08:10.538Z,958.6
2022-12-03T07:09:12.460Z,958.7
2022-12-03T07:10:14.346Z,958.7
2022-12-03T07:11:16.049Z,958.7
2022-12-03T07:12:17.946Z,958.7
2022-12-03T07:13:19.683Z,958.7
2022-12-03T07:14:21.519Z,958.7
2022-12-03T07:15:23.993Z,958.7
2022-12-03T07:16:26.519Z,958.7
2022-12-03T07:17:28.412Z,958.7
2022-12-03T07:18:30.176Z,958.8
2022-12-03T07:19:33.650Z,958.8
2022-12-03T07:20:35.487Z,958.8
2022-12-03T07:21:37.547Z,958.8
2022-12-03T07:22:39.185Z,958.8
2022-12-03T07:23:40.951Z,958.8
2022-12-03T07:24:42.721Z,958.8
2022-12-03T07:25:44.438Z,958.8
2022-12-03T07:26:46.386Z,958.8
2022-12-03T07:27:48.163Z,958.8
2022-12-03T07:28:50.096Z,958.9
2022-12-03T07:29:51.949Z,958.8
2022-12-03T07:30:54.043Z,958.8
2022-12-03T07:31:56.292Z,958.8
2022-12-03T07:32:58.205Z,958.8
2022-12-03T07:33:59.851Z,958.8
2022-12-03T07:35:01.626Z,958.8
2022-12-03T07:36:03.458Z,958.9
2022-12-03T07:37:05.406Z,958.8
2022-12-03T07:38:07.076Z,958.8
2022-12-03T07:39:08.905Z,958.8
2022-12-03T07:40:10.611Z,958.8
2022-12-03T07:41:12.296Z,958.8
2022-12-03T07:42:14.064Z,958.8
2022-12-03T07:43:15.829Z,958.8
2022-12-03T07:44:17.635Z,958.8
2022-12-03T07:45:19.291Z,958.8
2022-12-03T07:46:21.401Z,958.8
2022-12-03T07:47:23.217Z,958.8
2022-12-03T07:48:24.862Z,958.8
2022-12-03T07:49:26.517Z,958.9
2022-12-03T07:50:28.367Z,958.9
2022-12-03T07:51:32.944Z,958.9
2022-12-03T07:52:34.602Z,958.9
2022-12-03T07:53:36.326Z,958.9
2022-12-03T07:54:37.962Z,958.9
2022-12-03T07:55:39.748Z,958.9
2022-12-03T07:56:41.595Z,958.9
2022-12-03T07:57:43.238Z,958.9
2022-12-03T07:58:45.100Z,958.9
2022-12-03T07:59:46.940Z,958.9
2022-12-03T08:00:48.908Z,958.9
2022-12-03T08:01:50.872Z,958.9
2022-12-03T08:02:52.985Z,958.9
2022-12-03T08:03:54.728Z,958.9
2022-12-03T08:04:57.198Z,958.9
2022-12-03T08:05:58.976Z,958.9
2022-12-03T08:07:00.785Z,958.9
2022-12-03T08:08:02.869Z,958.9
2022-12-03T08:09:04.725Z,958.9
2022-12-03T08:10:06.546Z,958.9
2022-12-03T08:11:08.389Z,958.9
2022-12-03T08:12:10.140Z,958.9
2022-12-03T08:13:11.807Z,958.9
2022-12-03T08:14:13.665Z,958.9
2022-12-03T08:15:15.492Z,958.9
2022-12-03T08:16:17.739Z,958.9
2022-12-03T08:17:19.804Z,958.9
2022-12-03T08:18:21.546Z,958.9
2022-12-03T08:19:23.298Z,958.9
2022-12-03T08:20:25.296Z,958.9
2022-12-03T08:21:27.232Z,958.9
2022-12-03T08:22:28.957Z,959
2022-12-03T08:23:30.690Z,959
2022-12-03T08:24:32.346Z,959
2022-12-03T08:25:34.188Z,959
2022-12-03T08:26:36.072Z,959
2022-12-03T08:27:37.784Z,959
2022-12-03T08:28:39.510Z,959
2022-12-03T08:29:41.413Z,959.1
2022-12-03T08:30:43.246Z,959.1
2022-12-03T08:31:45.321Z,959.1
2022-12-03T08:32:47.169Z,959.1
2022-12-03T08:33:48.919Z,959.1
2022-12-03T08:34:50.733Z,959.1
2022-12-03T08:35:52.890Z,959.1
2022-12-03T08:36:54.641Z,959.1
2022-12-03T08:37:56.497Z,959.1
2022-12-03T08:38:58.345Z,959.1
2022-12-03T08:40:00.197Z,959.2
2022-12-03T08:41:01.878Z,959.2
2022-12-03T08:42:04.065Z,959.2
2022-12-03T08:43:12.228Z,959.2
2022-12-03T08:44:14.042Z,959.2
2022-12-03T08:45:15.983Z,959.2
2022-12-03T08:46:18.317Z,959.2
2022-12-03T08:47:20.318Z,959.2
2022-12-03T08:48:21.984Z,959.2
2022-12-03T08:49:23.812Z,959.2
2022-12-03T08:50:25.598Z,959.2
2022-12-03T08:51:27.326Z,959.2
2022-12-03T08:52:29.047Z,959.2
2022-12-03T08:53:30.768Z,959.2
2022-12-03T08:54:32.651Z,959.2
2022-12-03T08:55:34.390Z,959.2
2022-12-03T08:56:36.063Z,959.2
2022-12-03T08:57:37.713Z,959.2
2022-12-03T08:58:39.438Z,959.1
2022-12-03T08:59:46.204Z,959.2
2022-12-03T09:00:48.234Z,959.2
2022-12-03T09:01:50.301Z,959.2
2022-12-03T09:02:51.846Z,959.2
2022-12-03T09:03:53.935Z,959.2
2022-12-03T09:04:56.796Z,959.1
2022-12-03T09:05:58.732Z,959.1
2022-12-03T09:07:00.441Z,959.1
2022-12-03T09:08:02.611Z,959.1
2022-12-03T09:09:07.247Z,959.1
2022-12-03T09:10:09.024Z,959.1
2022-12-03T09:11:10.748Z,959.1
2022-12-03T09:12:12.622Z,959.1
2022-12-03T09:13:14.373Z,959.1
2022-12-03T09:14:19.379Z,959.1
2022-12-03T09:15:21.528Z,959.1
2022-12-03T09:16:23.925Z,959.1
2022-12-03T09:17:25.942Z,959.1
2022-12-03T09:18:27.693Z,959.1
2022-12-03T09:19:29.336Z,959.1
2022-12-03T09:20:31.162Z,959.1
2022-12-03T09:21:32.958Z,959.1
2022-12-03T09:22:34.891Z,959.2
2022-12-03T09:23:36.503Z,959.1
2022-12-03T09:24:38.384Z,959.1
2022-12-03T09:25:40.152Z,959.1
2022-12-03T09:26:41.983Z,959.1
2022-12-03T09:27:43.750Z,959.1
2022-12-03T09:28:45.529Z,959.1
2022-12-03T09:29:47.223Z,959.1
2022-12-03T09:30:49.084Z,959.1
2022-12-03T09:31:51.353Z,959
2022-12-03T09:32:53.501Z,959.1
2022-12-03T09:33:55.163Z,959.1
2022-12-03T09:34:57.511Z,959
2022-12-03T09:35:59.275Z,959.1
2022-12-03T09:37:01.203Z,959.1
2022-12-03T09:38:02.941Z,959.1
2022-12-03T09:39:04.657Z,959
2022-12-03T09:40:06.286Z,959.1
2022-12-03T09:41:08.180Z,959.1
2022-12-03T09:42:10.041Z,959
2022-12-03T09:43:11.779Z,959
2022-12-03T09:44:18.655Z,959
2022-12-03T09:45:20.499Z,959
2022-12-03T09:46:22.520Z,959
2022-12-03T09:47:24.597Z,959
2022-12-03T09:48:26.458Z,959
2022-12-03T09:49:28.205Z,959
2022-12-03T09:50:30.052Z,959
2022-12-03T09:51:31.736Z,959
2022-12-03T09:52:33.366Z,958.9
2022-12-03T09:53:41.750Z,958.9
2022-12-03T09:54:48.114Z,958.9
2022-12-03T09:55:50.171Z,958.9
2022-12-03T09:56:52.017Z,958.9
2022-12-03T09:57:53.693Z,958.9
2022-12-03T09:58:55.428Z,958.9
2022-12-03T09:59:57.252Z,958.9
2022-12-03T10:00:59.149Z,958.9
2022-12-03T10:02:01.626Z,958.8
2022-12-03T10:03:03.727Z,958.8
2022-12-03T10:04:06.496Z,958.8
2022-12-03T10:05:08.574Z,958.8
2022-12-03T10:06:10.508Z,958.8
2022-12-03T10:07:12.462Z,958.8
2022-12-03T10:08:14.465Z,958.8
2022-12-03T10:09:16.255Z,958.8
2022-12-03T10:10:17.889Z,958.7
2022-12-03T10:11:19.751Z,958.7
2022-12-03T10:12:21.610Z,958.7
2022-12-03T10:13:26.536Z,958.7
2022-12-03T10:14:28.482Z,958.7
2022-12-03T10:15:30.304Z,958.7
2022-12-03T10:16:32.438Z,958.7
2022-12-03T10:17:34.349Z,958.7
2022-12-03T10:18:42.258Z,958.7
2022-12-03T10:19:43.962Z,958.7
2022-12-03T10:20:45.756Z,958.7
2022-12-03T10:21:47.749Z,958.7
2022-12-03T10:22:49.737Z,958.7
2022-12-03T10:23:55.892Z,958.7
2022-12-03T10:24:57.569Z,958.6
2022-12-03T10:25:59.274Z,958.6
2022-12-03T10:27:01.150Z,958.7
2022-12-03T10:28:02.895Z,958.7
2022-12-03T10:29:04.927Z,958.6
2022-12-03T10:30:06.782Z,958.6
2022-12-03T10:31:08.773Z,958.6
2022-12-03T10:32:10.884Z,958.6
2022-12-03T10:33:19.501Z,958.6
2022-12-03T10:34:21.364Z,958.6
2022-12-03T10:35:23.304Z,958.6
2022-12-03T10:36:25.145Z,958.6
2022-12-03T10:37:26.991Z,958.6
2022-12-03T10:38:28.740Z,958.6
2022-12-03T10:39:30.410Z,958.6
2022-12-03T10:40:32.256Z,958.7
2022-12-03T10:41:34.085Z,958.6
2022-12-03T10:42:35.766Z,958.6
2022-12-03T10:43:37.586Z,958.6
2022-12-03T10:44:39.443Z,958.6
2022-12-03T10:45:41.562Z,958.6
2022-12-03T10:46:44.000Z,958.6
2022-12-03T10:47:46.371Z,958.6
2022-12-03T10:48:48.165Z,958.6
2022-12-03T10:49:50.218Z,958.6
2022-12-03T10:50:52.001Z,958.5
2022-12-03T10:51:53.608Z,958.6
2022-12-03T10:52:55.464Z,958.5
2022-12-03T10:53:57.186Z,958.5
2022-12-03T10:54:58.987Z,958.5
2022-12-03T10:56:00.626Z,958.5
2022-12-03T10:57:02.478Z,958.5
2022-12-03T10:58:04.306Z,958.5
2022-12-03T10:59:06.150Z,958.5
2022-12-03T11:00:07.906Z,958.5
2022-12-03T11:01:10.033Z,958.5
2022-12-03T11:02:12.009Z,958.5
2022-12-03T11:03:14.150Z,958.5
2022-12-03T11:04:16.025Z,958.5
2022-12-03T11:05:17.801Z,958.4
2022-12-03T11:06:19.715Z,958.4
2022-12-03T11:07:21.359Z,958.4
2022-12-03T11:08:23.036Z,958.4
2022-12-03T11:09:24.752Z,958.4
2022-12-03T11:10:26.609Z,958.3
2022-12-03T11:11:30.609Z,958.4
2022-12-03T11:12:32.461Z,958.4
2022-12-03T11:13:34.314Z,958.4
2022-12-03T11:14:36.134Z,958.4
2022-12-03T11:15:38.136Z,958.4
2022-12-03T11:16:40.279Z,958.4
2022-12-03T11:17:42.130Z,958.4
2022-12-03T11:18:43.879Z,958.5
2022-12-03T11:19:45.847Z,958.4
2022-12-03T11:20:47.639Z,958.4
2022-12-03T11:21:49.542Z,958.5
2022-12-03T11:22:51.335Z,958.4
2022-12-03T11:23:53.113Z,958.4
2022-12-03T11:24:55.848Z,958.4
2022-12-03T11:25:57.822Z,958.4
2022-12-03T11:26:59.686Z,958.4
2022-12-03T11:28:01.473Z,958.4
2022-12-03T11:29:03.294Z,958.4
2022-12-03T11:30:04.960Z,958.4
2022-12-03T11:31:06.891Z,958.4
2022-12-03T11:32:08.938Z,958.4
2022-12-03T11:33:10.798Z,958.4
2022-12-03T11:34:12.647Z,958.4
2022-12-03T11:35:14.494Z,958.3
2022-12-03T11:36:16.268Z,958.4
2022-12-03T11:37:18.186Z,958.3
2022-12-03T11:38:19.828Z,958.3
2022-12-03T11:39:21.575Z,958.3
2022-12-03T11:40:23.329Z,958.3
2022-12-03T11:41:25.175Z,958.3
2022-12-03T11:42:27.204Z,958.3
2022-12-03T11:43:31.990Z,958.3
2022-12-03T11:44:33.626Z,958.3
2022-12-03T11:45:35.462Z,958.2
2022-12-03T11:46:37.550Z,958.2
2022-12-03T11:47:39.659Z,958.2
2022-12-03T11:48:41.514Z,958.2
2022-12-03T11:49:43.253Z,958.2
2022-12-03T11:50:45.009Z,958.2
2022-12-03T11:51:46.871Z,958.2
2022-12-03T11:52:48.708Z,958.2
2022-12-03T11:53:50.483Z,958.2
2022-12-03T11:54:52.305Z,958.2
2022-12-03T11:55:54.047Z,958.1
2022-12-03T11:56:55.706Z,958.1
2022-12-03T11:57:57.548Z,958.1
2022-12-03T11:58:59.292Z,958.2
2022-12-03T12:00:01.142Z,958.2
2022-12-03T12:01:02.908Z,958.2
2022-12-03T12:02:04.839Z,958.2
2022-12-03T12:03:07.130Z,958.2
2022-12-03T12:04:09.293Z,958.2
2022-12-03T12:05:11.317Z,958.2
2022-12-03T12:06:13.031Z,958.2
2022-12-03T12:07:14.948Z,958.2
2022-12-03T12:08:17.257Z,958.2
2022-12-03T12:09:19.233Z,958.2
2022-12-03T12:10:21.108Z,958.2
2022-12-03T12:11:22.927Z,958.2
2022-12-03T12:12:24.778Z,958.2
2022-12-03T12:13:26.636Z,958.2
2022-12-03T12:14:28.374Z,958.2
2022-12-03T12:15:30.130Z,958.2
2022-12-03T12:16:32.215Z,958.1
2022-12-03T12:17:33.956Z,958.1
2022-12-03T12:18:35.801Z,958.1
2022-12-03T12:19:37.648Z,958.2
2022-12-03T12:20:39.491Z,958.2
2022-12-03T12:21:41.843Z,958.1
2022-12-03T12:22:44.117Z,958.1
2022-12-03T12:23:46.049Z,958.1
2022-12-03T12:24:47.792Z,958.1
2022-12-03T12:25:54.874Z,958.2
2022-12-03T12:26:56.527Z,958.1
2022-12-03T12:27:58.255Z,958.2
2022-12-03T12:29:00.030Z,958.2
2022-12-03T12:30:01.689Z,958.1
2022-12-03T12:31:03.624Z,958.1
2022-12-03T12:32:05.704Z,958.1
2022-12-03T12:33:07.568Z,958.1
2022-12-03T12:34:09.285Z,958.1
2022-12-03T12:35:11.013Z,958.1
2022-12-03T12:36:12.690Z,958.1
2022-12-03T12:37:14.496Z,958.1
2022-12-03T12:38:16.236Z,958.1
2022-12-03T12:39:18.203Z,958.1
2022-12-03T12:40:20.156Z,958.1
2022-12-03T12:41:21.965Z,958.1
2022-12-03T12:42:23.683Z,958.1
2022-12-03T12:43:25.628Z,958.1
2022-12-03T12:44:27.444Z,958.1
2022-12-03T12:45:29.318Z,958.1
2022-12-03T12:46:49.328Z,958.1
2022-12-03T12:47:51.667Z,958.1
2022-12-03T12:49:00.367Z,958.1
2022-12-03T12:50:02.214Z,958.1
2022-12-03T12:51:04.026Z,958.1
2022-12-03T12:52:05.799Z,958.1
2022-12-03T12:53:07.463Z,958.1
2022-12-03T12:54:09.420Z,958.2
2022-12-03T12:55:11.238Z,958.1
2022-12-03T12:56:12.885Z,958.2
2022-12-03T12:57:14.658Z,958.1
2022-12-03T12:58:16.305Z,958.2
2022-12-03T12:59:18.239Z,958.1
2022-12-03T13:00:20.000Z,958.1
2022-12-03T13:01:22.446Z,958.1
2022-12-03T13:02:24.624Z,958.1
2022-12-03T13:03:26.653Z,958.1
2022-12-03T13:04:28.329Z,958.1
2022-12-03T13:05:30.021Z,958.1
2022-12-03T13:06:31.717Z,958.1
2022-12-03T13:07:33.565Z,958.1
2022-12-03T13:08:35.600Z,958.1
2022-12-03T13:09:37.270Z,958.1
2022-12-03T13:10:39.017Z,958.1
2022-12-03T13:11:40.665Z,958.1
2022-12-03T13:12:42.385Z,958.1
2022-12-03T13:13:45.381Z,958.1
2022-12-03T13:14:47.454Z,958.1
2022-12-03T13:15:49.097Z,958.1
2022-12-03T13:16:51.331Z,958.1
2022-12-03T13:17:53.198Z,958.1
2022-12-03T13:18:55.018Z,958.1
2022-12-03T13:20:08.473Z,958.1
2022-12-03T13:21:10.905Z,958.1
2022-12-03T13:22:12.651Z,958.1
2022-12-03T13:23:14.300Z,958.1